Time;durP1;ratioP1;P1;durP2;ratioP2;P2;SDS_P1;SDS_P2;PMS_P1;PMS_P2;Temp;Humidity;BMP_temperature;BMP_pressure;BME280_temperature;BME280_humidity;BME280_pressure;Samples;Min_cycle;Max_cycle;Signal;HPM_P1;HPM_P2
2023/05/11 00:01:52;;;;;;;16.20;10.40;;;;;;;8.73;47.55;101370.91;107808;1257;74828;-90
2023/05/11 00:04:19;;;;;;;15.40;10.30;;;;;;;8.70;47.49;101370.91;107774;1260;71787;-89
2023/05/11 00:06:46;;;;;;;13.10;9.60;;;;;;;8.68;47.42;101371.21;107720;1259;60533;-90
2023/05/11 00:09:13;;;;;;;14.10;10.10;;;;;;;8.66;47.44;101374.91;107819;1257;60165;-90
2023/05/11 00:11:40;;;;;;;16.40;10.50;;;;;;;8.65;47.44;101372.04;107846;1258;74119;-89
2023/05/11 00:14:07;;;;;;;14.00;10.00;;;;;;;8.63;47.58;101373.49;107866;1258;74903;-89
2023/05/11 00:16:36;;;;;;;14.70;10.90;;;;;;;8.62;47.70;101372.04;107736;1260;73150;-88
2023/05/11 00:19:03;;;;;;;17.60;10.50;;;;;;;8.61;47.81;101370.02;107819;1260;60440;-90
2023/05/11 00:21:31;;;;;;;16.80;10.70;;;;;;;8.62;48.10;101370.31;107807;1258;61202;-89
2023/05/11 00:23:58;;;;;;;15.70;10.10;;;;;;;8.63;48.25;101373.49;107714;1259;74386;-89
2023/05/11 00:26:25;;;;;;;15.40;9.70;;;;;;;8.66;48.30;101372.92;107825;1257;71488;-90
2023/05/11 00:28:53;;;;;;;14.20;9.60;;;;;;;8.71;48.28;101372.58;107878;1260;71995;-90
2023/05/11 00:31:20;;;;;;;14.80;11.00;;;;;;;8.76;48.33;101372.81;107911;1258;59909;-89
2023/05/11 00:33:47;;;;;;;14.50;9.70;;;;;;;8.81;48.44;101373.71;107809;1259;62160;-89
2023/05/11 00:36:14;;;;;;;16.90;10.50;;;;;;;8.86;48.83;101371.03;107885;1262;72591;-89
2023/05/11 00:38:41;;;;;;;15.30;9.50;;;;;;;8.91;49.24;101367.64;107771;1257;75289;-91
2023/05/11 00:41:08;;;;;;;15.30;10.40;;;;;;;8.97;49.35;101370.69;107756;1259;73209;-91
2023/05/11 00:43:35;;;;;;;13.30;10.00;;;;;;;9.03;49.26;101366.20;108007;1257;60446;-90
2023/05/11 00:46:02;;;;;;;14.40;9.20;;;;;;;9.08;49.19;101371.98;107943;1262;60413;-91
2023/05/11 00:48:29;;;;;;;12.80;9.40;;;;;;;9.14;49.09;101368.02;107789;1258;73814;-90
2023/05/11 00:50:58;;;;;;;13.80;9.70;;;;;;;9.19;48.85;101365.00;107879;1258;74698;-91
2023/05/11 00:53:29;;;;;;;14.30;8.90;;;;;;;9.24;48.81;101366.20;107746;1258;73043;-91
2023/05/11 00:55:56;;;;;;;12.90;9.10;;;;;;;9.26;48.64;101364.23;107886;1258;60444;-91
2023/05/11 00:58:25;;;;;;;17.30;9.40;;;;;;;9.29;48.41;101360.38;107856;1261;60829;-90
2023/05/11 01:00:52;;;;;;;13.40;9.10;;;;;;;9.35;48.11;101365.25;107815;1258;73142;-91
2023/05/11 01:03:20;;;;;;;13.70;8.60;;;;;;;9.40;47.95;101366.40;107761;1258;73522;-90
2023/05/11 01:06:15;;;;;;;12.00;8.90;;;;;;;9.44;47.71;101367.27;107741;1257;74952;-90
2023/05/11 01:08:50;;;;;;;14.90;9.10;;;;;;;9.47;47.33;101366.45;107749;1260;62490;-90
2023/05/11 01:11:36;;;;;;;14.20;8.80;;;;;;;9.49;47.10;101363.84;107813;1257;61118;-91
2023/05/11 01:14:07;;;;;;;12.70;8.60;;;;;;;9.51;47.20;101362.11;107602;1257;75430;-89
2023/05/11 01:16:35;;;;;;;14.00;9.30;;;;;;;9.52;46.90;101367.97;107713;1261;72699;-91
2023/05/11 01:19:17;;;;;;;13.80;9.10;;;;;;;9.52;46.72;101368.45;107754;1260;73566;-89
2023/05/11 01:21:44;;;;;;;13.00;9.10;;;;;;;9.53;46.59;101370.64;107721;1259;61300;-90
2023/05/11 01:24:17;;;;;;;15.00;9.10;;;;;;;9.54;46.51;101370.94;107810;1258;62065;-90
2023/05/11 01:26:54;;;;;;;15.90;10.70;;;;;;;9.55;46.58;101369.38;107766;1258;73947;-90
2023/05/11 01:29:24;;;;;;;14.60;10.50;;;;;;;9.56;46.62;101371.31;107864;1260;71804;-90
2023/05/11 01:31:54;;;;;;;14.60;10.40;;;;;;;9.57;46.77;101371.98;107761;1259;71958;-88
2023/05/11 01:34:25;;;;;;;17.60;10.60;;;;;;;9.59;46.84;101373.95;107776;1256;60420;-89
2023/05/11 01:36:56;;;;;;;14.40;10.20;;;;;;;9.60;46.70;101373.49;107858;1257;60944;-90
2023/05/11 01:39:29;;;;;;;15.30;10.60;;;;;;;9.64;46.79;101374.44;107785;1260;76078;-89
2023/05/11 01:41:56;;;;;;;16.80;11.50;;;;;;;9.68;46.75;101373.88;107964;1257;73730;-90
2023/05/11 01:44:24;;;;;;;16.50;10.70;;;;;;;9.72;46.75;101369.87;107766;1260;71450;-90
2023/05/11 01:46:51;;;;;;;15.80;10.50;;;;;;;9.76;46.74;101370.30;107840;1259;60507;-90
2023/05/11 01:49:23;;;;;;;15.10;10.30;;;;;;;9.78;46.62;101372.38;107881;1257;60375;-89
2023/05/11 01:51:50;;;;;;;;;;;;;;;9.80;46.61;101373.16;107681;1257;72155;-91
2023/05/11 01:54:17;;;;;;;13.00;9.40;;;;;;;9.82;46.49;101378.39;107803;1261;72039;-90
2023/05/11 01:56:44;;;;;;;14.30;9.10;;;;;;;9.83;46.49;101375.63;107766;1259;74561;-90
2023/05/11 01:59:13;;;;;;;12.90;9.10;;;;;;;9.85;46.35;101375.84;107822;1260;60502;-90
2023/05/11 02:01:41;;;;;;;13.70;9.10;;;;;;;9.86;46.19;101381.24;107811;1260;60300;-90
2023/05/11 02:04:08;;;;;;;12.40;9.10;;;;;;;9.86;45.91;101375.11;107668;1260;73931;-89
2023/05/11 02:06:36;;;;;;;12.50;8.30;;;;;;;9.87;45.49;101380.20;107871;1261;73023;-90
2023/05/11 02:09:03;;;;;;;12.40;7.80;;;;;;;9.87;45.35;101378.75;107843;1263;73437;-90
2023/05/11 02:11:32;;;;;;;11.60;8.10;;;;;;;9.87;45.11;101375.22;107817;1260;60573;-91
2023/05/11 02:13:59;;;;;;;11.00;7.40;;;;;;;9.87;44.95;101378.98;107772;1259;60981;-90
2023/05/11 02:16:27;;;;;;;15.00;7.40;;;;;;;9.89;44.76;101381.68;107714;1261;76194;-90
2023/05/11 02:18:54;;;;;;;14.90;7.80;;;;;;;9.90;44.40;101383.95;107966;1260;74860;-89
2023/05/11 02:21:21;;;;;;;10.30;7.10;;;;;;;9.90;44.29;101383.26;107848;1258;73500;-90
2023/05/11 02:23:49;;;;;;;12.60;7.90;;;;;;;9.91;44.34;101384.29;107644;1260;60380;-89
2023/05/11 02:26:16;;;;;;;12.60;8.20;;;;;;;9.92;44.53;101384.85;107777;1257;62582;-89
2023/05/11 02:28:43;;;;;;;10.80;7.90;;;;;;;9.93;44.58;101385.67;107865;1262;73492;-89
2023/05/11 02:31:18;;;;;;;11.00;7.80;;;;;;;9.95;44.94;101388.61;107794;1258;71437;-89
2023/05/11 02:33:47;;;;;;;10.10;7.60;;;;;;;9.97;45.11;101389.22;107750;1261;75003;-88
2023/05/11 02:36:21;;;;;;;11.50;7.60;;;;;;;9.99;45.14;101390.66;107676;1261;60433;-88
2023/05/11 02:38:50;;;;;;;14.60;8.50;;;;;;;10.01;45.15;101390.88;107633;1261;59617;-92
2023/05/11 02:41:21;;;;;;;9.90;7.60;;;;;;;10.01;44.93;101389.71;107885;1261;75217;-90
2023/05/11 02:43:50;;;;;;;12.00;7.40;;;;;;;10.02;44.75;101390.84;107775;1261;73352;-90
2023/05/11 02:46:20;;;;;;;11.60;7.50;;;;;;;10.04;44.63;101390.46;107674;1258;72377;-90
2023/05/11 02:48:51;;;;;;;10.80;6.70;;;;;;;10.06;44.39;101396.07;107818;1261;60383;-88
2023/05/11 02:51:19;;;;;;;8.90;5.90;;;;;;;10.07;44.15;101393.84;107903;1257;60345;-90
2023/05/11 02:53:48;;;;;;;10.20;6.80;;;;;;;10.08;43.95;101391.95;107744;1257;74432;-89
2023/05/11 02:56:15;;;;;;;8.40;6.60;;;;;;;10.10;43.72;101393.21;107594;1257;70806;-89
2023/05/11 02:58:42;;;;;;;9.50;6.40;;;;;;;10.12;43.44;101395.40;107792;1257;74059;-90
2023/05/11 03:01:18;;;;;;;11.90;6.70;;;;;;;10.15;43.24;101396.46;107755;1257;60341;-90
2023/05/11 03:03:46;;;;;;;9.50;6.70;;;;;;;10.17;43.15;101394.52;107642;1258;60418;-90
2023/05/11 03:06:14;;;;;;;10.00;6.70;;;;;;;10.18;43.21;101396.76;107779;1257;74593;-91
2023/05/11 03:08:41;;;;;;;10.70;6.80;;;;;;;10.19;43.16;101395.88;107805;1257;72442;-91
2023/05/11 03:11:08;;;;;;;11.50;7.10;;;;;;;10.21;43.25;101402.37;107836;1257;72507;-89
2023/05/11 03:13:35;;;;;;;9.10;6.30;;;;;;;10.22;43.26;101410.70;107629;1260;60451;-91
2023/05/11 03:16:03;;;;;;;9.60;6.50;;;;;;;10.20;43.32;101407.95;107782;1257;60443;-91
2023/05/11 03:18:30;;;;;;;10.30;6.80;;;;;;;10.19;43.28;101404.66;107769;1257;73539;-90
2023/05/11 03:20:58;;;;;;;11.10;6.60;;;;;;;10.18;43.27;101409.30;107804;1260;71349;-90
2023/05/11 03:23:25;;;;;;;11.50;6.30;;;;;;;10.16;43.07;101419.77;107682;1261;70586;-89
2023/05/11 03:25:55;;;;;;;9.80;6.80;;;;;;;10.15;43.15;101421.41;107723;1261;60425;-90
2023/05/11 03:28:23;;;;;;;9.10;6.60;;;;;;;10.14;43.15;101418.62;107797;1257;60883;-91
2023/05/11 03:30:59;;;;;;;10.90;6.60;;;;;;;10.14;43.17;101415.90;107801;1257;72353;-90
2023/05/11 03:33:28;;;;;;;9.50;6.10;;;;;;;10.16;43.14;101420.52;107804;1257;73256;-91
2023/05/11 03:35:59;;;;;;;16.10;7.40;;;;;;;10.17;43.19;101419.46;107749;1264;75014;-91
2023/05/11 03:38:35;;;;;;;12.10;6.50;;;;;;;10.17;43.19;101419.41;107622;1261;60443;-90
2023/05/11 03:41:03;;;;;;;10.90;7.20;;;;;;;10.17;43.14;101423.40;107688;1257;60418;-90
2023/05/11 03:43:31;;;;;;;10.80;7.00;;;;;;;10.15;43.26;101424.13;107888;1257;76004;-92
2023/05/11 03:46:00;;;;;;;11.30;8.00;;;;;;;10.16;43.49;101428.63;107787;1261;71695;-90
2023/05/11 03:48:27;;;;;;;11.00;7.30;;;;;;;10.18;43.85;101430.65;107754;1259;72842;-90
2023/05/11 03:50:55;;;;;;;9.10;7.10;;;;;;;10.22;44.15;101432.77;107851;1260;60430;-90
2023/05/11 03:53:22;;;;;;;9.50;6.80;;;;;;;10.26;44.36;101431.45;107647;1258;60873;-90
2023/05/11 03:55:51;;;;;;;13.40;7.50;;;;;;;10.30;44.55;101436.03;107752;1257;72412;-90
2023/05/11 03:58:20;;;;;;;12.10;6.80;;;;;;;10.32;44.55;101439.59;107900;1257;74437;-90
2023/05/11 04:00:47;;;;;;;12.80;7.50;;;;;;;10.34;44.48;101436.92;107764;1257;72979;-90
2023/05/11 04:03:14;;;;;;;11.90;7.60;;;;;;;10.37;44.56;101437.80;107678;1257;60352;-91
2023/05/11 04:05:42;;;;;;;10.50;7.40;;;;;;;10.41;44.93;101446.00;107771;1257;60595;-88
2023/05/11 04:08:11;;;;;;;9.90;7.10;;;;;;;10.46;45.02;101444.02;107814;1257;72966;-88
2023/05/11 04:10:38;;;;;;;14.60;8.10;;;;;;;10.51;44.95;101444.82;107890;1262;71504;-89
2023/05/11 04:13:05;;;;;;;11.10;6.90;;;;;;;10.57;44.79;101450.66;107830;1260;71705;-89
2023/05/11 04:15:32;;;;;;;12.60;7.50;;;;;;;10.64;44.63;101454.16;107911;1262;60967;-88
2023/05/11 04:17:59;;;;;;;12.00;7.00;;;;;;;10.72;44.35;101456.91;107826;1258;61428;-90
2023/05/11 04:20:26;;;;;;;12.20;7.60;;;;;;;10.82;44.11;101456.42;107684;1260;75056;-88
2023/05/11 04:22:54;;;;;;;12.20;6.90;;;;;;;10.93;43.58;101454.23;107549;1260;75180;-89
2023/05/11 04:25:22;;;;;;;10.30;6.80;;;;;;;11.05;43.30;101455.22;107808;1257;74967;-91
2023/05/11 04:27:50;;;;;;;11.90;6.40;;;;;;;11.18;43.02;101457.63;107805;1257;60454;-91
2023/05/11 04:30:19;;;;;;;10.70;7.10;;;;;;;11.30;42.24;101464.04;107867;1258;60294;-91
2023/05/11 04:32:47;;;;;;;10.20;6.60;;;;;;;11.40;41.75;101461.17;107686;1259;73726;-90
2023/05/11 04:35:14;;;;;;;10.70;5.30;;;;;;;11.51;41.64;101462.27;107742;1258;74115;-90
2023/05/11 04:37:42;;;;;;;7.60;5.80;;;;;;;11.65;41.25;101460.27;107689;1257;74811;-91
2023/05/11 04:40:10;;;;;;;8.10;6.20;;;;;;;11.79;40.78;101453.52;107605;1260;59658;-91
2023/05/11 04:42:39;;;;;;;11.40;6.80;;;;;;;11.89;40.50;101452.52;107885;1257;61287;-90
2023/05/11 04:45:12;;;;;;;12.30;6.80;;;;;;;11.99;40.37;101456.35;107802;1257;76123;-91
2023/05/11 04:47:39;;;;;;;9.90;7.20;;;;;;;12.08;40.53;101455.84;107688;1257;73977;-90
2023/05/11 04:50:07;;;;;;;11.40;6.90;;;;;;;12.19;40.35;101455.33;107954;1257;75021;-91
2023/05/11 04:52:35;;;;;;;9.10;6.00;;;;;;;12.29;40.11;101457.38;107790;1257;59965;-90
2023/05/11 04:55:02;;;;;;;9.80;6.30;;;;;;;12.37;39.74;101458.64;107781;1259;60900;-90
2023/05/11 04:57:30;;;;;;;9.10;6.50;;;;;;;12.45;39.89;101460.03;107775;1260;76322;-90
2023/05/11 04:59:57;;;;;;;9.50;6.40;;;;;;;12.52;40.12;101456.27;107751;1259;72731;-89
2023/05/11 05:02:24;;;;;;;8.70;5.80;;;;;;;12.60;40.18;101455.34;107707;1259;75156;-91
2023/05/11 05:04:51;;;;;;;8.30;5.90;;;;;;;12.71;40.35;101458.54;107826;1257;60402;-91
2023/05/11 05:07:19;;;;;;;9.70;6.50;;;;;;;12.83;40.06;101459.07;107952;1257;61390;-91
2023/05/11 05:09:46;;;;;;;10.70;7.10;;;;;;;12.93;40.10;101459.63;107881;1257;72477;-91
2023/05/11 05:12:14;;;;;;;9.80;6.90;;;;;;;13.03;40.06;101461.17;107899;1257;72494;-89
2023/05/11 05:14:41;;;;;;;9.80;6.80;;;;;;;13.17;39.79;101453.71;107826;1258;74661;-90
2023/05/11 05:17:09;;;;;;;10.00;6.80;;;;;;;13.33;39.38;101456.23;107725;1257;60492;-91
2023/05/11 05:19:37;;;;;;;11.60;6.50;;;;;;;13.52;39.21;101454.50;107751;1259;60759;-90
2023/05/11 05:22:04;;;;;;;10.40;7.20;;;;;;;13.70;39.00;101456.29;107841;1257;73970;-90
2023/05/11 05:24:33;;;;;;;11.80;7.10;;;;;;;13.84;38.69;101456.30;107806;1257;75392;-93
2023/05/11 05:27:03;;;;;;;10.80;6.80;;;;;;;13.92;38.50;101456.20;107973;1258;73272;-92
2023/05/11 05:29:32;;;;;;;10.20;7.00;;;;;;;14.00;38.61;101459.52;107681;1259;61364;-92
2023/05/11 05:32:01;;;;;;;9.60;7.10;;;;;;;14.09;38.47;101463.20;107780;1258;62667;-94
2023/05/11 05:34:28;;;;;;;9.50;6.10;;;;;;;14.16;38.41;101458.14;107776;1259;75674;-93
2023/05/11 05:36:55;;;;;;;9.80;6.30;;;;;;;14.23;38.25;101455.22;108032;1259;73040;-91
2023/05/11 05:39:22;;;;;;;10.50;6.50;;;;;;;14.34;38.11;101457.88;107717;1257;72631;-91
2023/05/11 05:41:50;;;;;;;8.80;6.50;;;;;;;14.43;37.94;101460.02;107820;1259;59531;-93
2023/05/11 05:44:18;;;;;;;7.90;5.60;;;;;;;14.52;38.04;101459.61;107900;1256;60417;-93
2023/05/11 05:46:46;;;;;;;9.80;6.50;;;;;;;14.60;37.77;101456.60;108043;1257;73917;-91
2023/05/11 05:49:13;;;;;;;8.60;6.00;;;;;;;14.66;37.52;101456.09;107870;1256;72896;-91
2023/05/11 05:51:41;;;;;;;11.80;6.10;;;;;;;14.72;37.19;101454.84;107996;1256;71679;-92
2023/05/11 05:54:10;;;;;;;8.90;6.10;;;;;;;14.83;36.73;101456.59;107989;1256;62721;-91
2023/05/11 05:56:37;;;;;;;8.20;5.60;;;;;;;14.91;36.04;101458.23;108018;1256;60339;-91
2023/05/11 05:59:07;;;;;;;8.00;4.90;;;;;;;14.99;35.44;101455.45;107905;1256;74208;-90
2023/05/11 06:01:35;;;;;;;10.80;5.30;;;;;;;15.01;34.89;101450.84;107897;1257;71161;-93
2023/05/11 06:04:05;;;;;;;8.90;5.30;;;;;;;15.07;34.94;101446.66;107806;1257;74692;-92
2023/05/11 06:06:33;;;;;;;7.50;4.90;;;;;;;15.18;34.82;101451.31;107766;1257;60284;-91
2023/05/11 06:09:03;;;;;;;6.10;4.20;;;;;;;15.37;34.78;101447.79;107861;1256;60305;-91
2023/05/11 06:11:33;;;;;;;7.90;4.60;;;;;;;15.62;34.15;101449.66;107826;1256;74175;-92
2023/05/11 06:14:03;;;;;;;7.90;4.60;;;;;;;15.82;33.01;101451.09;108036;1262;72632;-92
2023/05/11 06:16:30;;;;;;;6.40;4.60;;;;;;;15.91;32.51;101449.83;107942;1257;74410;-91
2023/05/11 06:18:58;;;;;;;7.00;4.40;;;;;;;16.01;32.48;101443.36;107775;1257;60856;-90
2023/05/11 06:21:26;;;;;;;6.00;4.20;;;;;;;16.04;32.45;101443.15;107756;1256;60450;-90
2023/05/11 06:23:54;;;;;;;8.10;4.60;;;;;;;16.06;32.31;101442.71;107928;1259;76145;-92
2023/05/11 06:26:24;;;;;;;6.90;4.40;;;;;;;16.09;32.60;101446.69;107881;1256;74368;-92
2023/05/11 06:28:51;;;;;;;6.80;4.10;;;;;;;16.15;32.55;101448.67;107828;1259;73711;-92
2023/05/11 06:31:21;;;;;;;6.70;4.10;;;;;;;16.23;32.65;101448.38;107759;1261;61352;-91
2023/05/11 06:33:49;;;;;;;6.40;4.10;;;;;;;16.35;32.56;101448.09;107726;1259;61231;-91
2023/05/11 06:36:23;;;;;;;6.60;4.10;;;;;;;16.50;31.64;101447.20;107797;1258;75807;-91
2023/05/11 06:38:51;;;;;;;5.90;3.90;;;;;;;16.65;30.96;101444.77;107727;1260;72442;-90
2023/05/11 06:41:20;;;;;;;12.40;4.40;;;;;;;16.77;30.68;101445.98;107842;1259;73586;-90
2023/05/11 06:43:47;;;;;;;14.50;4.40;;;;;;;16.89;30.50;101444.23;107646;1258;62642;-91
2023/05/11 06:46:20;;;;;;;11.10;4.00;;;;;;;16.99;29.98;101441.50;107979;1258;61446;-93
2023/05/11 06:48:55;;;;;;;26.50;5.80;;;;;;;17.01;29.31;101437.28;107946;1259;76236;-93
2023/05/11 06:51:31;;;;;;;7.90;3.70;;;;;;;17.06;29.31;101438.17;108019;1259;73541;-91
2023/05/11 06:54:01;;;;;;;10.70;3.90;;;;;;;17.11;28.51;101439.33;107938;1259;73727;-92
2023/05/11 06:56:33;;;;;;;6.00;3.50;;;;;;;17.16;28.21;101436.77;107917;1259;61662;-92
2023/05/11 06:59:02;;;;;;;7.10;3.50;;;;;;;17.23;28.24;101438.29;107930;1259;62710;-94
2023/05/11 07:01:30;;;;;;;5.40;3.80;;;;;;;17.36;27.46;101438.52;107886;1259;75785;-91
2023/05/11 07:03:57;;;;;;;7.20;3.70;;;;;;;17.48;27.01;101431.69;107816;1259;74806;-92
2023/05/11 07:06:28;;;;;;;6.00;3.30;;;;;;;17.62;26.30;101435.58;108037;1259;73835;-94
2023/05/11 07:08:58;;;;;;;6.00;3.50;;;;;;;17.78;24.82;101435.02;107866;1258;60473;-92
2023/05/11 07:11:26;;;;;;;4.80;3.00;;;;;;;17.90;24.12;101434.50;107806;1259;61237;-91
2023/05/11 07:13:55;;;;;;;5.80;3.40;;;;;;;17.99;23.82;101436.20;107861;1263;76591;-93
2023/05/11 07:16:37;;;;;;;4.90;3.40;;;;;;;18.06;23.68;101430.83;107936;1259;71745;-93
2023/05/11 07:19:05;;;;;;;5.30;3.50;;;;;;;18.07;23.38;101427.80;107763;1259;71301;-91
2023/05/11 07:21:33;;;;;;;6.50;3.80;;;;;;;18.08;23.35;101433.57;107928;1259;61355;-94
2023/05/11 07:24:02;;;;;;;5.90;3.80;;;;;;;18.17;23.42;101430.66;107995;1259;59758;-89
2023/05/11 07:26:30;;;;;;;5.30;3.70;;;;;;;18.32;22.96;101430.45;107990;1257;73737;-93
2023/05/11 07:28:57;;;;;;;5.80;3.70;;;;;;;18.46;23.10;101426.02;107897;1257;72779;-92
2023/05/11 07:31:24;;;;;;;4.40;3.20;;;;;;;18.58;22.74;101425.66;108017;1257;73858;-92
2023/05/11 07:33:52;;;;;;;6.70;3.40;;;;;;;18.62;22.61;101424.02;107984;1257;61298;-91
2023/05/11 07:36:19;;;;;;;6.00;3.70;;;;;;;18.68;22.31;101420.65;108142;1257;61266;-94
2023/05/11 07:38:46;;;;;;;4.90;3.30;;;;;;;18.71;21.56;101419.70;107942;1257;74011;-93
2023/05/11 07:41:16;;;;;;;6.90;3.60;;;;;;;18.68;21.68;101412.91;108098;1257;72465;-92
2023/05/11 07:43:43;;;;;;;4.70;3.10;;;;;;;18.72;22.01;101417.27;108016;1257;71731;-93
2023/05/11 07:46:11;;;;;;;5.20;3.30;;;;;;;18.85;22.02;101419.65;108094;1259;61788;-92
2023/05/11 07:48:38;;;;;;;6.30;3.00;;;;;;;19.01;21.24;101418.89;108120;1257;62295;-91
2023/05/11 07:51:06;;;;;;;5.70;2.90;;;;;;;19.16;20.97;101415.10;107983;1259;74446;-92
2023/05/11 07:53:34;;;;;;;5.60;3.00;;;;;;;19.37;21.09;101411.96;107920;1257;73911;-93
2023/05/11 07:56:04;;;;;;;7.40;3.00;;;;;;;19.59;20.81;101405.60;107838;1257;74052;-93
2023/05/11 07:58:33;;;;;;;4.90;2.90;;;;;;;19.76;20.63;101405.23;107894;1257;62373;-93
2023/05/11 08:01:00;;;;;;;3.90;2.90;;;;;;;19.86;20.59;101403.90;107959;1257;61289;-92
2023/05/11 08:03:27;;;;;;;5.50;2.90;;;;;;;19.94;19.89;101403.55;107852;1263;74687;-92
2023/05/11 08:05:56;;;;;;;4.30;2.80;;;;;;;20.00;19.77;101403.31;108027;1257;71945;-92
2023/05/11 08:08:24;;;;;;;4.70;2.90;;;;;;;20.08;19.74;101398.89;107792;1259;71423;-92
2023/05/11 08:10:51;;;;;;;4.60;2.50;;;;;;;20.20;20.12;101396.98;108836;1257;61360;-91
2023/05/11 08:13:19;;;;;;;4.10;2.40;;;;;;;20.40;19.42;101393.70;108909;1257;61582;-91
2023/05/11 08:15:46;;;;;;;3.60;2.30;;;;;;;20.56;18.63;101394.92;109159;1257;73243;-89
2023/05/11 08:18:13;;;;;;;4.50;2.60;;;;;;;20.64;17.93;101397.05;109024;1257;73612;-91
2023/05/11 08:20:41;;;;;;;3.90;2.40;;;;;;;20.68;17.81;101400.76;108997;1257;73478;-90
2023/05/11 08:23:09;;;;;;;11.50;2.90;;;;;;;20.65;18.21;101396.90;108943;1257;59931;-92
2023/05/11 08:25:38;;;;;;;3.60;2.30;;;;;;;20.66;18.05;101397.31;108930;1257;60963;-93
2023/05/11 08:28:06;;;;;;;4.20;2.40;;;;;;;20.54;17.89;101396.20;108767;1257;74667;-92
2023/05/11 08:30:39;;;;;;;4.30;2.90;;;;;;;20.29;18.36;101399.99;108879;1257;72624;-92
2023/05/11 08:33:07;;;;;;;4.30;2.60;;;;;;;20.03;18.53;101403.00;108799;1257;73507;-93
2023/05/11 08:35:54;;;;;;;4.00;2.40;;;;;;;19.86;18.87;101405.04;107905;1257;61184;-91
2023/05/11 08:38:21;;;;;;;4.30;2.50;;;;;;;19.76;19.18;101406.59;107736;1257;60585;-92
2023/05/11 08:40:50;;;;;;;3.80;2.70;;;;;;;19.68;19.05;101408.95;107930;1257;73334;-91
2023/05/11 08:43:17;;;;;;;4.40;2.50;;;;;;;19.60;18.74;101408.71;107910;1257;72306;-93
2023/05/11 08:45:48;;;;;;;5.40;2.40;;;;;;;19.55;18.65;101408.05;107746;1257;74988;-92
2023/05/11 08:48:19;;;;;;;4.20;2.30;;;;;;;19.55;18.64;101408.64;107798;1265;60410;-93
2023/05/11 08:50:47;;;;;;;3.20;2.40;;;;;;;19.56;18.44;101404.18;107680;1257;61638;-93
2023/05/11 08:53:19;;;;;;;6.90;2.50;;;;;;;19.61;18.50;101404.09;108191;1261;74086;-93
2023/05/11 08:55:47;;;;;;;19.60;3.50;;;;;;;19.74;18.71;101407.59;108270;1257;73676;-93
2023/05/11 08:58:24;;;;;;;4.40;2.20;;;;;;;19.89;18.36;101401.14;108699;1257;73521;-91
2023/05/11 09:01:28;;;;;;;3.70;2.30;;;;;;;19.96;18.33;101402.97;107873;1260;61789;-93
2023/05/11 09:03:57;;;;;;;3.30;2.30;;;;;;;19.92;18.35;101405.64;108031;1260;61247;-92
2023/05/11 09:06:32;;;;;;;4.00;2.30;;;;;;;19.92;18.52;101401.04;107989;1267;75947;-93
2023/05/11 09:09:16;;;;;;;4.80;2.60;;;;;;;19.98;18.60;101403.77;108183;1260;71434;-91
2023/05/11 09:11:50;;;;;;;5.50;2.50;;;;;;;20.04;18.56;101402.66;108194;1261;74744;-92
2023/05/11 09:14:55;;;;;;;4.80;2.20;;;;;;;20.08;19.21;101396.78;108226;1260;61204;-91
2023/05/11 09:17:32;;;;;;;3.90;2.30;;;;;;;20.11;19.20;101393.20;107976;1260;60424;-91
2023/05/11 09:20:08;;;;;;;4.40;2.20;;;;;;;20.10;18.79;101392.50;107943;1261;76007;-91
2023/05/11 09:22:53;;;;;;;3.20;2.10;;;;;;;20.21;18.00;101392.88;107981;1260;75196;-93
2023/05/11 09:25:22;;;;;;;4.10;2.30;;;;;;;20.21;17.51;101386.40;107788;1260;73586;-90
2023/05/11 09:27:49;;;;;;;7.60;2.30;;;;;;;20.19;17.69;101380.58;107783;1262;60458;-92
2023/05/11 09:30:19;;;;;;;3.10;2.20;;;;;;;20.32;18.38;101378.30;107846;1260;62615;-93
2023/05/11 09:33:07;;;;;;;5.90;2.30;;;;;;;20.65;18.31;101372.05;108003;1260;73891;-93
2023/05/11 09:35:39;;;;;;;7.70;2.60;;;;;;;20.97;17.44;101364.60;108154;1260;71248;-92
2023/05/11 09:38:10;;;;;;;3.80;2.20;;;;;;;21.17;17.40;101366.58;108361;1257;73744;-95
2023/05/11 09:40:43;;;;;;;3.80;2.50;;;;;;;21.37;17.20;101355.13;108023;1257;61156;-90
2023/05/11 09:43:21;;;;;;;3.80;2.30;;;;;;;21.66;16.97;101353.95;108264;1257;62392;-92
2023/05/11 09:46:06;;;;;;;6.10;2.40;;;;;;;21.95;16.59;101349.67;108011;1257;74756;-91
2023/05/11 09:48:34;;;;;;;3.90;2.10;;;;;;;22.18;16.92;101350.91;107718;1259;72361;-92
2023/05/11 09:51:02;;;;;;;4.50;2.30;;;;;;;22.36;16.96;101348.66;107676;1259;74826;-92
2023/05/11 09:53:34;;;;;;;3.50;2.40;;;;;;;22.38;16.87;101343.42;107703;1259;61433;-91
2023/05/11 09:56:01;;;;;;;7.50;2.60;;;;;;;22.35;16.65;101343.13;107662;1257;61023;-91
2023/05/11 09:58:48;;;;;;;4.20;2.40;;;;;;;22.34;16.72;101347.41;107736;1258;74972;-92
2023/05/11 10:01:16;;;;;;;5.20;2.60;;;;;;;22.27;16.35;101343.97;107950;1257;74688;-91
2023/05/11 10:03:46;;;;;;;3.90;2.20;;;;;;;22.14;16.45;101340.94;107878;1258;74479;-92
2023/05/11 10:06:17;;;;;;;3.80;2.50;;;;;;;21.98;16.07;101336.33;107814;1257;61841;-93
2023/05/11 10:08:46;;;;;;;3.50;2.30;;;;;;;21.75;16.26;101342.06;108135;1257;62839;-93
2023/05/11 10:11:17;;;;;;;4.40;2.50;;;;;;;21.61;16.64;101346.64;107817;1257;76003;-93
2023/05/11 10:13:47;;;;;;;5.40;2.60;;;;;;;21.55;16.79;101348.14;107659;1259;72031;-91
2023/05/11 10:16:32;;;;;;;4.00;2.60;;;;;;;21.40;17.17;101343.96;107805;1257;73304;-94
2023/05/11 10:19:02;;;;;;;6.30;2.80;;;;;;;21.29;17.79;101341.44;107904;1259;61172;-93
2023/05/11 10:21:30;;;;;;;4.60;2.40;;;;;;;21.27;17.72;101340.95;107779;1259;61306;-92
2023/05/11 10:23:58;;;;;;;4.50;2.30;;;;;;;21.28;17.91;101342.86;107870;1259;76485;-90
2023/05/11 10:26:25;;;;;;;4.70;2.40;;;;;;;21.21;17.49;101336.85;107805;1257;73155;-92
2023/05/11 10:28:53;;;;;;;4.20;2.30;;;;;;;21.08;17.37;101337.05;107692;1257;74519;-92
2023/05/11 10:31:23;;;;;;;5.20;2.60;;;;;;;21.01;18.00;101335.02;107876;1259;61207;-93
2023/05/11 10:33:50;;;;;;;3.10;2.20;;;;;;;21.03;18.24;101330.77;108364;1258;61566;-92
2023/05/11 10:36:18;;;;;;;5.70;2.20;;;;;;;21.12;18.34;101328.13;108461;1257;72411;-93
2023/05/11 10:38:46;;;;;;;3.80;2.30;;;;;;;21.16;18.45;101323.06;108405;1258;73079;-90
2023/05/11 10:42:00;;;;;;;5.40;2.40;;;;;;;21.19;17.81;101319.50;108364;1257;74971;-90
2023/05/11 10:44:42;;;;;;;5.00;2.50;;;;;;;21.29;17.71;101318.71;108625;1258;62877;-92
2023/05/11 10:47:31;;;;;;;4.50;2.60;;;;;;;21.48;17.40;101314.65;107965;1257;61032;-90
2023/05/11 10:50:20;;;;;;;5.60;2.70;;;;;;;21.72;17.66;101312.48;108415;1257;75042;-92
2023/05/11 10:53:17;;;;;;;4.90;2.90;;;;;;;21.90;17.16;101310.77;107898;1257;72963;-93
2023/05/11 10:55:54;;;;;;;6.00;2.70;;;;;;;22.03;17.15;101310.08;107714;1259;74090;-92
2023/05/11 10:58:27;;;;;;;5.00;2.40;;;;;;;21.88;17.47;101306.64;107775;1257;62389;-91
2023/05/11 11:01:16;;;;;;;6.30;2.30;;;;;;;21.77;17.65;101309.64;107833;1257;61194;-93
2023/05/11 11:03:57;;;;;;;3.80;2.40;;;;;;;21.64;17.63;101309.10;107985;1257;74979;-93
2023/05/11 11:06:28;;;;;;;5.20;2.50;;;;;;;21.44;17.68;101306.58;108114;1257;71882;-93
2023/05/11 11:09:02;;;;;;;15.00;3.40;;;;;;;21.32;18.17;101306.14;107887;1257;73802;-93
2023/05/11 11:11:33;;;;;;;25.60;3.70;;;;;;;21.21;18.54;101306.64;108051;1257;59943;-94
2023/05/11 11:14:25;;;;;;;6.80;2.20;;;;;;;21.08;18.38;101309.94;107787;1257;60973;-92
2023/05/11 11:17:19;;;;;;;5.40;2.20;;;;;;;21.03;18.50;101307.62;108150;1257;75005;-93
2023/05/11 11:19:48;;;;;;;4.70;3.20;;;;;;;21.02;18.09;101307.10;108003;1257;75095;-93
2023/05/11 11:22:34;;;;;;;4.10;2.60;;;;;;;21.00;18.22;101305.65;107784;1257;74723;-94
2023/05/11 11:25:07;;;;;;;4.00;2.40;;;;;;;21.02;18.24;101304.66;107921;1257;62602;-92
2023/05/11 11:27:47;;;;;;;7.00;3.30;;;;;;;21.09;18.40;101301.01;107795;1257;61448;-91
2023/05/11 11:30:16;;;;;;;5.10;2.40;;;;;;;21.15;18.31;101299.66;107827;1257;75107;-93